sensor_id;sensor_type;location;lat;lon;timestamp;P1;durP1;ratioP1;P2;durP2;ratioP2
75165;SDS011;63747;48.042;10.088;2023-07-16T00:00:15;7.15;;;4.40;;
75165;SDS011;63747;48.042;10.088;2023-07-16T00:03:18;9.27;;;4.35;;
75165;SDS011;63747;48.042;10.088;2023-07-16T00:06:19;5.70;;;4.20;;
75165;SDS011;63747;48.042;10.088;2023-07-16T00:09:20;6.28;;;4.32;;
75165;SDS011;63747;48.042;10.088;2023-07-16T00:12:20;7.38;;;4.40;;
75165;SDS011;63747;48.042;10.088;2023-07-16T00:15:21;6.72;;;4.53;;
75165;SDS011;63747;48.042;10.088;2023-07-16T00:18:22;4.32;;;3.92;;
75165;SDS011;63747;48.042;10.088;2023-07-16T00:21:23;8.02;;;4.32;;
75165;SDS011;63747;48.042;10.088;2023-07-16T00:24:24;6.28;;;4.40;;
75165;SDS011;63747;48.042;10.088;2023-07-16T00:27:25;5.57;;;4.60;;
75165;SDS011;63747;48.042;10.088;2023-07-16T00:30:25;8.73;;;4.40;;
75165;SDS011;63747;48.042;10.088;2023-07-16T00:33:26;9.02;;;5.30;;
75165;SDS011;63747;48.042;10.088;2023-07-16T00:36:26;9.52;;;4.95;;
75165;SDS011;63747;48.042;10.088;2023-07-16T00:39:27;5.10;;;4.38;;
75165;SDS011;63747;48.042;10.088;2023-07-16T00:42:29;7.15;;;3.97;;
75165;SDS011;63747;48.042;10.088;2023-07-16T00:45:29;7.45;;;4.18;;
75165;SDS011;63747;48.042;10.088;2023-07-16T00:48:30;5.88;;;3.95;;
75165;SDS011;63747;48.042;10.088;2023-07-16T00:51:31;5.65;;;4.00;;
75165;SDS011;63747;48.042;10.088;2023-07-16T00:54:32;6.20;;;4.20;;
75165;SDS011;63747;48.042;10.088;2023-07-16T01:00:34;5.20;;;4.55;;
75165;SDS011;63747;48.042;10.088;2023-07-16T01:03:36;5.00;;;3.92;;
75165;SDS011;63747;48.042;10.088;2023-07-16T01:06:38;5.75;;;4.13;;
75165;SDS011;63747;48.042;10.088;2023-07-16T01:09:41;5.80;;;4.05;;
75165;SDS011;63747;48.042;10.088;2023-07-16T01:12:43;6.25;;;3.50;;
75165;SDS011;63747;48.042;10.088;2023-07-16T01:15:45;5.53;;;4.40;;
75165;SDS011;63747;48.042;10.088;2023-07-16T01:18:46;6.25;;;4.15;;
75165;SDS011;63747;48.042;10.088;2023-07-16T01:28:44;6.38;;;4.25;;
75165;SDS011;63747;48.042;10.088;2023-07-16T01:31:49;7.18;;;4.38;;
75165;SDS011;63747;48.042;10.088;2023-07-16T01:34:51;6.65;;;3.63;;
75165;SDS011;63747;48.042;10.088;2023-07-16T01:37:53;4.68;;;3.53;;
75165;SDS011;63747;48.042;10.088;2023-07-16T01:40:54;6.15;;;3.17;;
75165;SDS011;63747;48.042;10.088;2023-07-16T01:50:10;3.83;;;2.70;;
75165;SDS011;63747;48.042;10.088;2023-07-16T01:56:11;3.77;;;3.30;;
75165;SDS011;63747;48.042;10.088;2023-07-16T01:59:12;4.13;;;3.13;;
75165;SDS011;63747;48.042;10.088;2023-07-16T02:05:14;3.63;;;2.70;;
75165;SDS011;63747;48.042;10.088;2023-07-16T02:08:16;3.88;;;3.03;;
75165;SDS011;63747;48.042;10.088;2023-07-16T02:11:20;4.18;;;3.20;;
75165;SDS011;63747;48.042;10.088;2023-07-16T02:17:21;2.97;;;2.60;;
75165;SDS011;63747;48.042;10.088;2023-07-16T02:23:22;3.60;;;2.67;;
75165;SDS011;63747;48.042;10.088;2023-07-16T02:29:23;3.53;;;2.27;;
75165;SDS011;63747;48.042;10.088;2023-07-16T02:35:25;7.40;;;2.47;;
75165;SDS011;63747;48.042;10.088;2023-07-16T02:41:26;3.27;;;2.30;;
75165;SDS011;63747;48.042;10.088;2023-07-16T02:47:27;4.27;;;2.10;;
75165;SDS011;63747;48.042;10.088;2023-07-16T02:53:28;4.13;;;2.10;;
75165;SDS011;63747;48.042;10.088;2023-07-16T02:59:29;2.67;;;2.00;;
75165;SDS011;63747;48.042;10.088;2023-07-16T03:05:31;2.43;;;1.63;;
75165;SDS011;63747;48.042;10.088;2023-07-16T03:11:32;2.37;;;1.90;;
75165;SDS011;63747;48.042;10.088;2023-07-16T03:17:33;3.87;;;1.80;;
75165;SDS011;63747;48.042;10.088;2023-07-16T03:23:35;3.17;;;1.40;;
75165;SDS011;63747;48.042;10.088;2023-07-16T03:29:36;3.10;;;1.70;;
75165;SDS011;63747;48.042;10.088;2023-07-16T03:35:37;2.43;;;1.83;;
75165;SDS011;63747;48.042;10.088;2023-07-16T03:41:38;3.60;;;2.00;;
75165;SDS011;63747;48.042;10.088;2023-07-16T03:47:39;2.87;;;1.80;;
75165;SDS011;63747;48.042;10.088;2023-07-16T03:53:41;4.33;;;1.70;;
75165;SDS011;63747;48.042;10.088;2023-07-16T03:56:41;2.58;;;1.40;;
75165;SDS011;63747;48.042;10.088;2023-07-16T04:02:42;2.07;;;1.37;;
75165;SDS011;63747;48.042;10.088;2023-07-16T04:08:44;3.13;;;1.60;;
75165;SDS011;63747;48.042;10.088;2023-07-16T04:11:44;1.40;;;1.27;;
75165;SDS011;63747;48.042;10.088;2023-07-16T04:14:46;2.05;;;1.50;;
75165;SDS011;63747;48.042;10.088;2023-07-16T04:17:47;1.90;;;1.30;;
75165;SDS011;63747;48.042;10.088;2023-07-16T04:23:48;4.17;;;1.57;;
75165;SDS011;63747;48.042;10.088;2023-07-16T04:29:49;2.23;;;1.27;;
75165;SDS011;63747;48.042;10.088;2023-07-16T04:32:50;2.45;;;1.52;;
75165;SDS011;63747;48.042;10.088;2023-07-16T04:35:50;1.88;;;1.42;;
75165;SDS011;63747;48.042;10.088;2023-07-16T04:38:51;1.70;;;1.20;;
75165;SDS011;63747;48.042;10.088;2023-07-16T04:41:52;2.10;;;1.10;;
75165;SDS011;63747;48.042;10.088;2023-07-16T04:44:52;2.35;;;1.23;;
75165;SDS011;63747;48.042;10.088;2023-07-16T04:47:53;2.00;;;1.33;;
75165;SDS011;63747;48.042;10.088;2023-07-16T04:50:54;1.67;;;1.05;;
75165;SDS011;63747;48.042;10.088;2023-07-16T04:53:54;3.95;;;1.23;;
75165;SDS011;63747;48.042;10.088;2023-07-16T04:56:55;1.65;;;1.30;;
75165;SDS011;63747;48.042;10.088;2023-07-16T04:59:56;3.03;;;1.23;;
75165;SDS011;63747;48.042;10.088;2023-07-16T05:05:57;2.80;;;1.40;;
75165;SDS011;63747;48.042;10.088;2023-07-16T05:08:58;2.72;;;1.52;;
75165;SDS011;63747;48.042;10.088;2023-07-16T05:12:00;3.40;;;1.77;;
75165;SDS011;63747;48.042;10.088;2023-07-16T05:15:02;2.92;;;1.50;;
75165;SDS011;63747;48.042;10.088;2023-07-16T05:18:03;2.78;;;1.52;;
75165;SDS011;63747;48.042;10.088;2023-07-16T05:21:03;2.33;;;1.30;;
75165;SDS011;63747;48.042;10.088;2023-07-16T05:24:04;2.35;;;1.40;;
75165;SDS011;63747;48.042;10.088;2023-07-16T05:27:05;1.60;;;1.40;;
75165;SDS011;63747;48.042;10.088;2023-07-16T05:30:06;4.65;;;1.50;;
75165;SDS011;63747;48.042;10.088;2023-07-16T05:33:07;2.33;;;1.70;;
75165;SDS011;63747;48.042;10.088;2023-07-16T05:36:08;1.58;;;1.40;;
75165;SDS011;63747;48.042;10.088;2023-07-16T05:39:11;2.90;;;1.60;;
75165;SDS011;63747;48.042;10.088;2023-07-16T05:42:15;1.77;;;1.35;;
75165;SDS011;63747;48.042;10.088;2023-07-16T05:45:15;2.00;;;1.50;;
75165;SDS011;63747;48.042;10.088;2023-07-16T05:48:16;1.65;;;1.33;;
75165;SDS011;63747;48.042;10.088;2023-07-16T05:51:20;2.60;;;1.42;;
75165;SDS011;63747;48.042;10.088;2023-07-16T05:54:21;3.40;;;1.52;;
75165;SDS011;63747;48.042;10.088;2023-07-16T05:57:23;2.65;;;1.50;;
75165;SDS011;63747;48.042;10.088;2023-07-16T06:00:23;2.72;;;1.75;;
75165;SDS011;63747;48.042;10.088;2023-07-16T06:03:24;3.72;;;1.38;;
75165;SDS011;63747;48.042;10.088;2023-07-16T06:06:27;3.53;;;1.75;;
75165;SDS011;63747;48.042;10.088;2023-07-16T06:09:28;2.58;;;1.50;;
75165;SDS011;63747;48.042;10.088;2023-07-16T06:12:29;3.28;;;1.40;;
75165;SDS011;63747;48.042;10.088;2023-07-16T06:15:30;1.75;;;1.27;;
75165;SDS011;63747;48.042;10.088;2023-07-16T06:18:30;1.45;;;1.30;;
75165;SDS011;63747;48.042;10.088;2023-07-16T06:21:32;2.78;;;1.38;;
75165;SDS011;63747;48.042;10.088;2023-07-16T06:24:33;2.95;;;1.38;;
75165;SDS011;63747;48.042;10.088;2023-07-16T06:27:33;2.50;;;1.70;;
75165;SDS011;63747;48.042;10.088;2023-07-16T06:30:34;2.30;;;1.60;;
75165;SDS011;63747;48.042;10.088;2023-07-16T06:33:35;1.98;;;1.30;;
75165;SDS011;63747;48.042;10.088;2023-07-16T06:36:36;2.00;;;1.42;;
75165;SDS011;63747;48.042;10.088;2023-07-16T06:39:38;1.65;;;1.30;;
75165;SDS011;63747;48.042;10.088;2023-07-16T06:42:39;1.50;;;1.40;;
75165;SDS011;63747;48.042;10.088;2023-07-16T06:45:39;2.38;;;1.60;;
75165;SDS011;63747;48.042;10.088;2023-07-16T06:48:40;1.63;;;1.48;;
75165;SDS011;63747;48.042;10.088;2023-07-16T06:51:41;1.58;;;1.23;;
75165;SDS011;63747;48.042;10.088;2023-07-16T06:54:42;3.00;;;1.70;;
75165;SDS011;63747;48.042;10.088;2023-07-16T06:57:43;1.73;;;1.33;;
75165;SDS011;63747;48.042;10.088;2023-07-16T07:00:44;2.15;;;1.70;;
75165;SDS011;63747;48.042;10.088;2023-07-16T07:03:44;2.03;;;1.27;;
75165;SDS011;63747;48.042;10.088;2023-07-16T07:06:45;2.53;;;1.60;;
75165;SDS011;63747;48.042;10.088;2023-07-16T07:09:49;1.80;;;1.45;;
75165;SDS011;63747;48.042;10.088;2023-07-16T07:12:50;2.25;;;1.40;;
75165;SDS011;63747;48.042;10.088;2023-07-16T07:15:50;1.92;;;1.30;;
75165;SDS011;63747;48.042;10.088;2023-07-16T07:18:51;2.83;;;1.50;;
75165;SDS011;63747;48.042;10.088;2023-07-16T07:21:52;2.08;;;1.40;;
75165;SDS011;63747;48.042;10.088;2023-07-16T07:27:53;1.40;;;1.20;;
75165;SDS011;63747;48.042;10.088;2023-07-16T07:33:54;2.17;;;1.20;;
75165;SDS011;63747;48.042;10.088;2023-07-16T07:36:57;1.40;;;1.27;;
75165;SDS011;63747;48.042;10.088;2023-07-16T07:42:59;1.42;;;1.30;;
75165;SDS011;63747;48.042;10.088;2023-07-16T07:49:00;1.35;;;1.08;;
75165;SDS011;63747;48.042;10.088;2023-07-16T07:55:02;2.10;;;1.37;;
75165;SDS011;63747;48.042;10.088;2023-07-16T07:58:03;1.75;;;1.33;;
75165;SDS011;63747;48.042;10.088;2023-07-16T08:04:05;2.15;;;1.20;;
75165;SDS011;63747;48.042;10.088;2023-07-16T08:07:06;2.47;;;1.15;;
75165;SDS011;63747;48.042;10.088;2023-07-16T08:10:07;1.70;;;1.23;;
75165;SDS011;63747;48.042;10.088;2023-07-16T08:13:08;1.70;;;1.17;;
75165;SDS011;63747;48.042;10.088;2023-07-16T08:16:09;1.40;;;1.20;;
75165;SDS011;63747;48.042;10.088;2023-07-16T08:19:09;1.92;;;1.27;;
75165;SDS011;63747;48.042;10.088;2023-07-16T08:22:10;2.08;;;0.90;;
75165;SDS011;63747;48.042;10.088;2023-07-16T08:25:12;1.85;;;1.15;;
75165;SDS011;63747;48.042;10.088;2023-07-16T08:28:13;2.15;;;1.00;;
75165;SDS011;63747;48.042;10.088;2023-07-16T08:31:15;3.00;;;1.02;;
75165;SDS011;63747;48.042;10.088;2023-07-16T08:34:15;3.55;;;1.60;;
75165;SDS011;63747;48.042;10.088;2023-07-16T08:37:16;1.98;;;1.20;;
75165;SDS011;63747;48.042;10.088;2023-07-16T08:40:17;1.58;;;1.10;;
75165;SDS011;63747;48.042;10.088;2023-07-16T08:43:18;2.13;;;1.17;;
75165;SDS011;63747;48.042;10.088;2023-07-16T08:46:20;1.70;;;1.20;;
75165;SDS011;63747;48.042;10.088;2023-07-16T08:49:21;2.60;;;1.00;;
75165;SDS011;63747;48.042;10.088;2023-07-16T08:52:25;2.35;;;0.95;;
75165;SDS011;63747;48.042;10.088;2023-07-16T08:55:28;2.10;;;1.08;;
75165;SDS011;63747;48.042;10.088;2023-07-16T08:58:28;2.80;;;1.00;;
75165;SDS011;63747;48.042;10.088;2023-07-16T09:01:31;1.70;;;1.10;;
75165;SDS011;63747;48.042;10.088;2023-07-16T09:04:32;1.98;;;1.30;;
75165;SDS011;63747;48.042;10.088;2023-07-16T09:07:33;1.58;;;1.10;;
75165;SDS011;63747;48.042;10.088;2023-07-16T09:10:37;1.40;;;0.90;;
75165;SDS011;63747;48.042;10.088;2023-07-16T09:13:43;1.98;;;1.17;;
75165;SDS011;63747;48.042;10.088;2023-07-16T09:16:48;1.60;;;1.02;;
75165;SDS011;63747;48.042;10.088;2023-07-16T09:19:52;1.52;;;1.23;;
75165;SDS011;63747;48.042;10.088;2023-07-16T09:22:53;2.03;;;1.10;;
75165;SDS011;63747;48.042;10.088;2023-07-16T09:25:55;1.65;;;1.00;;
75165;SDS011;63747;48.042;10.088;2023-07-16T09:28:56;2.03;;;1.20;;
75165;SDS011;63747;48.042;10.088;2023-07-16T09:31:58;1.63;;;1.13;;
75165;SDS011;63747;48.042;10.088;2023-07-16T09:35:00;2.53;;;1.15;;
75165;SDS011;63747;48.042;10.088;2023-07-16T09:38:01;1.30;;;1.20;;
75165;SDS011;63747;48.042;10.088;2023-07-16T09:41:03;2.15;;;1.10;;
75165;SDS011;63747;48.042;10.088;2023-07-16T09:44:06;2.80;;;1.10;;
75165;SDS011;63747;48.042;10.088;2023-07-16T09:47:07;1.83;;;1.10;;
75165;SDS011;63747;48.042;10.088;2023-07-16T09:50:08;1.65;;;1.00;;
75165;SDS011;63747;48.042;10.088;2023-07-16T09:53:09;1.55;;;1.10;;
75165;SDS011;63747;48.042;10.088;2023-07-16T09:56:11;1.35;;;1.00;;
75165;SDS011;63747;48.042;10.088;2023-07-16T09:59:15;1.55;;;1.17;;
75165;SDS011;63747;48.042;10.088;2023-07-16T10:02:18;3.28;;;1.00;;
75165;SDS011;63747;48.042;10.088;2023-07-16T10:05:24;1.27;;;1.10;;
75165;SDS011;63747;48.042;10.088;2023-07-16T10:08:26;1.13;;;1.00;;
75165;SDS011;63747;48.042;10.088;2023-07-16T10:11:36;2.78;;;1.38;;
75165;SDS011;63747;48.042;10.088;2023-07-16T10:14:55;1.65;;;1.40;;
75165;SDS011;63747;48.042;10.088;2023-07-16T10:17:56;1.30;;;1.20;;
75165;SDS011;63747;48.042;10.088;2023-07-16T10:21:01;3.63;;;1.33;;
75165;SDS011;63747;48.042;10.088;2023-07-16T10:24:16;1.25;;;1.00;;
75165;SDS011;63747;48.042;10.088;2023-07-16T10:27:26;1.55;;;1.17;;
75165;SDS011;63747;48.042;10.088;2023-07-16T10:30:32;1.73;;;1.20;;
75165;SDS011;63747;48.042;10.088;2023-07-16T10:33:34;2.28;;;1.27;;
75165;SDS011;63747;48.042;10.088;2023-07-16T10:36:38;1.52;;;1.30;;
75165;SDS011;63747;48.042;10.088;2023-07-16T10:39:46;2.40;;;1.20;;
75165;SDS011;63747;48.042;10.088;2023-07-16T10:42:52;2.00;;;1.30;;
75165;SDS011;63747;48.042;10.088;2023-07-16T10:45:53;2.20;;;1.50;;
75165;SDS011;63747;48.042;10.088;2023-07-16T10:48:54;1.50;;;1.30;;
75165;SDS011;63747;48.042;10.088;2023-07-16T10:51:54;2.30;;;1.40;;
75165;SDS011;63747;48.042;10.088;2023-07-16T10:54:55;3.13;;;1.20;;
75165;SDS011;63747;48.042;10.088;2023-07-16T10:57:57;1.60;;;1.20;;
75165;SDS011;63747;48.042;10.088;2023-07-16T11:00:58;2.85;;;1.50;;
75165;SDS011;63747;48.042;10.088;2023-07-16T11:04:00;1.60;;;1.20;;
75165;SDS011;63747;48.042;10.088;2023-07-16T11:07:08;2.08;;;1.20;;
75165;SDS011;63747;48.042;10.088;2023-07-16T11:10:11;2.13;;;1.27;;
75165;SDS011;63747;48.042;10.088;2023-07-16T11:13:12;1.85;;;1.23;;
75165;SDS011;63747;48.042;10.088;2023-07-16T11:16:12;3.10;;;1.20;;
75165;SDS011;63747;48.042;10.088;2023-07-16T11:19:19;1.40;;;1.10;;
75165;SDS011;63747;48.042;10.088;2023-07-16T11:22:27;2.58;;;1.50;;
75165;SDS011;63747;48.042;10.088;2023-07-16T11:25:28;2.10;;;1.30;;
75165;SDS011;63747;48.042;10.088;2023-07-16T11:28:41;1.55;;;1.08;;
75165;SDS011;63747;48.042;10.088;2023-07-16T11:31:42;1.75;;;1.20;;
75165;SDS011;63747;48.042;10.088;2023-07-16T11:34:52;2.08;;;1.33;;
75165;SDS011;63747;48.042;10.088;2023-07-16T11:37:56;3.20;;;1.33;;
75165;SDS011;63747;48.042;10.088;2023-07-16T11:40:59;2.65;;;1.52;;
75165;SDS011;63747;48.042;10.088;2023-07-16T11:44:01;1.52;;;1.20;;
75165;SDS011;63747;48.042;10.088;2023-07-16T11:47:02;2.50;;;1.50;;
75165;SDS011;63747;48.042;10.088;2023-07-16T11:50:03;1.50;;;1.17;;
75165;SDS011;63747;48.042;10.088;2023-07-16T11:53:04;2.85;;;1.80;;
75165;SDS011;63747;48.042;10.088;2023-07-16T11:56:05;2.10;;;1.45;;
75165;SDS011;63747;48.042;10.088;2023-07-16T11:59:06;1.88;;;1.20;;
75165;SDS011;63747;48.042;10.088;2023-07-16T12:02:06;1.58;;;1.30;;
75165;SDS011;63747;48.042;10.088;2023-07-16T12:05:08;1.70;;;1.30;;
75165;SDS011;63747;48.042;10.088;2023-07-16T12:08:09;1.48;;;1.20;;
75165;SDS011;63747;48.042;10.088;2023-07-16T12:11:14;1.23;;;1.10;;
75165;SDS011;63747;48.042;10.088;2023-07-16T12:14:14;2.25;;;1.52;;
75165;SDS011;63747;48.042;10.088;2023-07-16T12:17:15;1.95;;;1.30;;
75165;SDS011;63747;48.042;10.088;2023-07-16T12:20:16;1.90;;;1.20;;
75165;SDS011;63747;48.042;10.088;2023-07-16T12:23:16;3.33;;;1.40;;
75165;SDS011;63747;48.042;10.088;2023-07-16T12:26:17;3.83;;;1.52;;
75165;SDS011;63747;48.042;10.088;2023-07-16T12:29:18;2.42;;;1.60;;
75165;SDS011;63747;48.042;10.088;2023-07-16T12:32:18;3.90;;;1.50;;
75165;SDS011;63747;48.042;10.088;2023-07-16T12:35:20;2.35;;;1.42;;
75165;SDS011;63747;48.042;10.088;2023-07-16T12:38:20;2.40;;;1.48;;
75165;SDS011;63747;48.042;10.088;2023-07-16T12:41:22;2.35;;;1.40;;
75165;SDS011;63747;48.042;10.088;2023-07-16T12:44:23;1.50;;;1.40;;
75165;SDS011;63747;48.042;10.088;2023-07-16T12:47:23;1.67;;;1.55;;
75165;SDS011;63747;48.042;10.088;2023-07-16T12:50:24;2.25;;;1.58;;
75165;SDS011;63747;48.042;10.088;2023-07-16T12:53:27;1.40;;;1.30;;
75165;SDS011;63747;48.042;10.088;2023-07-16T12:56:28;2.65;;;1.58;;
75165;SDS011;63747;48.042;10.088;2023-07-16T12:59:30;2.40;;;1.30;;
75165;SDS011;63747;48.042;10.088;2023-07-16T13:02:31;1.85;;;1.30;;
75165;SDS011;63747;48.042;10.088;2023-07-16T13:05:32;3.22;;;1.60;;
75165;SDS011;63747;48.042;10.088;2023-07-16T13:08:32;2.10;;;1.38;;
75165;SDS011;63747;48.042;10.088;2023-07-16T13:11:35;2.50;;;1.50;;
75165;SDS011;63747;48.042;10.088;2023-07-16T13:14:36;1.80;;;1.38;;
75165;SDS011;63747;48.042;10.088;2023-07-16T13:17:37;1.88;;;1.50;;
75165;SDS011;63747;48.042;10.088;2023-07-16T13:20:38;2.78;;;1.80;;
75165;SDS011;63747;48.042;10.088;2023-07-16T13:23:39;2.88;;;1.50;;
75165;SDS011;63747;48.042;10.088;2023-07-16T13:26:39;1.65;;;1.30;;
75165;SDS011;63747;48.042;10.088;2023-07-16T13:29:40;3.92;;;1.63;;
75165;SDS011;63747;48.042;10.088;2023-07-16T13:32:40;2.45;;;1.50;;
75165;SDS011;63747;48.042;10.088;2023-07-16T13:35:41;3.47;;;1.60;;
75165;SDS011;63747;48.042;10.088;2023-07-16T13:38:42;2.90;;;1.52;;
75165;SDS011;63747;48.042;10.088;2023-07-16T13:41:42;1.92;;;1.40;;
75165;SDS011;63747;48.042;10.088;2023-07-16T13:44:43;1.88;;;1.60;;
75165;SDS011;63747;48.042;10.088;2023-07-16T13:47:44;2.08;;;1.55;;
75165;SDS011;63747;48.042;10.088;2023-07-16T13:50:45;3.25;;;1.67;;
75165;SDS011;63747;48.042;10.088;2023-07-16T13:53:45;2.70;;;1.70;;
75165;SDS011;63747;48.042;10.088;2023-07-16T13:56:46;2.22;;;1.50;;
75165;SDS011;63747;48.042;10.088;2023-07-16T13:59:48;1.92;;;1.48;;
75165;SDS011;63747;48.042;10.088;2023-07-16T14:02:49;1.60;;;1.40;;
75165;SDS011;63747;48.042;10.088;2023-07-16T14:05:49;2.75;;;1.63;;
75165;SDS011;63747;48.042;10.088;2023-07-16T14:08:50;1.88;;;1.50;;
75165;SDS011;63747;48.042;10.088;2023-07-16T14:11:51;2.13;;;1.38;;
75165;SDS011;63747;48.042;10.088;2023-07-16T14:14:51;2.22;;;1.55;;
75165;SDS011;63747;48.042;10.088;2023-07-16T14:17:52;2.38;;;1.48;;
75165;SDS011;63747;48.042;10.088;2023-07-16T14:20:53;2.10;;;1.23;;
75165;SDS011;63747;48.042;10.088;2023-07-16T14:23:53;2.20;;;1.50;;
75165;SDS011;63747;48.042;10.088;2023-07-16T14:26:57;2.00;;;1.52;;
75165;SDS011;63747;48.042;10.088;2023-07-16T14:30:00;2.03;;;1.63;;
75165;SDS011;63747;48.042;10.088;2023-07-16T14:33:01;1.77;;;1.50;;
75165;SDS011;63747;48.042;10.088;2023-07-16T14:36:03;1.42;;;1.30;;
75165;SDS011;63747;48.042;10.088;2023-07-16T14:39:04;2.92;;;1.50;;
75165;SDS011;63747;48.042;10.088;2023-07-16T14:42:05;2.42;;;1.50;;
75165;SDS011;63747;48.042;10.088;2023-07-16T14:45:06;2.13;;;1.50;;
75165;SDS011;63747;48.042;10.088;2023-07-16T14:48:07;3.42;;;1.80;;
75165;SDS011;63747;48.042;10.088;2023-07-16T14:51:10;3.05;;;1.60;;
75165;SDS011;63747;48.042;10.088;2023-07-16T14:54:13;2.60;;;1.52;;
75165;SDS011;63747;48.042;10.088;2023-07-16T14:57:14;1.95;;;1.63;;
75165;SDS011;63747;48.042;10.088;2023-07-16T15:00:15;2.78;;;1.67;;
75165;SDS011;63747;48.042;10.088;2023-07-16T15:03:16;3.70;;;1.60;;
75165;SDS011;63747;48.042;10.088;2023-07-16T15:06:17;2.97;;;1.45;;
75165;SDS011;63747;48.042;10.088;2023-07-16T15:09:18;2.35;;;1.90;;
75165;SDS011;63747;48.042;10.088;2023-07-16T15:12:19;2.70;;;1.70;;
75165;SDS011;63747;48.042;10.088;2023-07-16T15:15:19;2.00;;;1.55;;
75165;SDS011;63747;48.042;10.088;2023-07-16T15:18:20;2.35;;;1.67;;
75165;SDS011;63747;48.042;10.088;2023-07-16T15:21:21;3.85;;;1.80;;
75165;SDS011;63747;48.042;10.088;2023-07-16T15:24:21;1.80;;;1.48;;
75165;SDS011;63747;48.042;10.088;2023-07-16T15:27:22;2.88;;;1.73;;
75165;SDS011;63747;48.042;10.088;2023-07-16T15:30:23;4.10;;;1.60;;
75165;SDS011;63747;48.042;10.088;2023-07-16T15:33:24;2.58;;;1.70;;
75165;SDS011;63747;48.042;10.088;2023-07-16T15:36:25;1.88;;;1.58;;
75165;SDS011;63747;48.042;10.088;2023-07-16T15:39:26;2.03;;;1.55;;
75165;SDS011;63747;48.042;10.088;2023-07-16T15:42:27;2.47;;;1.60;;
75165;SDS011;63747;48.042;10.088;2023-07-16T15:45:28;2.05;;;1.30;;
75165;SDS011;63747;48.042;10.088;2023-07-16T15:48:28;2.13;;;1.58;;
75165;SDS011;63747;48.042;10.088;2023-07-16T15:51:29;2.38;;;1.58;;
75165;SDS011;63747;48.042;10.088;2023-07-16T15:54:30;3.85;;;1.60;;
75165;SDS011;63747;48.042;10.088;2023-07-16T15:57:30;2.25;;;1.60;;
75165;SDS011;63747;48.042;10.088;2023-07-16T16:00:31;2.72;;;1.60;;
75165;SDS011;63747;48.042;10.088;2023-07-16T16:03:32;4.38;;;2.28;;
75165;SDS011;63747;48.042;10.088;2023-07-16T16:06:32;3.53;;;2.15;;
75165;SDS011;63747;48.042;10.088;2023-07-16T16:09:33;2.00;;;1.70;;
75165;SDS011;63747;48.042;10.088;2023-07-16T16:12:34;2.92;;;1.80;;
75165;SDS011;63747;48.042;10.088;2023-07-16T16:15:34;2.25;;;1.60;;
75165;SDS011;63747;48.042;10.088;2023-07-16T16:18:35;2.10;;;1.60;;
75165;SDS011;63747;48.042;10.088;2023-07-16T16:21:36;2.90;;;1.70;;
75165;SDS011;63747;48.042;10.088;2023-07-16T16:24:36;5.72;;;2.58;;
75165;SDS011;63747;48.042;10.088;2023-07-16T16:27:37;3.50;;;1.55;;
75165;SDS011;63747;48.042;10.088;2023-07-16T16:30:41;2.75;;;1.70;;
75165;SDS011;63747;48.042;10.088;2023-07-16T16:33:42;1.50;;;1.27;;
75165;SDS011;63747;48.042;10.088;2023-07-16T16:36:43;3.05;;;1.60;;
75165;SDS011;63747;48.042;10.088;2023-07-16T16:39:44;1.52;;;1.42;;
75165;SDS011;63747;48.042;10.088;2023-07-16T16:42:44;1.58;;;1.48;;
75165;SDS011;63747;48.042;10.088;2023-07-16T16:45:45;1.85;;;1.50;;
75165;SDS011;63747;48.042;10.088;2023-07-16T16:48:48;3.15;;;1.88;;
75165;SDS011;63747;48.042;10.088;2023-07-16T16:51:49;2.47;;;1.70;;
75165;SDS011;63747;48.042;10.088;2023-07-16T16:54:49;2.30;;;1.60;;
75165;SDS011;63747;48.042;10.088;2023-07-16T16:57:50;1.67;;;1.50;;
75165;SDS011;63747;48.042;10.088;2023-07-16T17:00:52;2.38;;;1.75;;
75165;SDS011;63747;48.042;10.088;2023-07-16T17:03:55;2.08;;;1.70;;
75165;SDS011;63747;48.042;10.088;2023-07-16T17:06:56;2.85;;;2.13;;
75165;SDS011;63747;48.042;10.088;2023-07-16T17:09:58;1.90;;;1.65;;
75165;SDS011;63747;48.042;10.088;2023-07-16T17:12:59;2.33;;;1.60;;
75165;SDS011;63747;48.042;10.088;2023-07-16T17:16:00;2.65;;;2.15;;
75165;SDS011;63747;48.042;10.088;2023-07-16T17:19:00;3.50;;;2.55;;
75165;SDS011;63747;48.042;10.088;2023-07-16T17:22:02;3.05;;;2.20;;
75165;SDS011;63747;48.042;10.088;2023-07-16T17:25:04;3.08;;;1.80;;
75165;SDS011;63747;48.042;10.088;2023-07-16T17:28:05;2.05;;;1.80;;
75165;SDS011;63747;48.042;10.088;2023-07-16T17:31:06;3.75;;;1.80;;
75165;SDS011;63747;48.042;10.088;2023-07-16T17:34:07;3.33;;;2.05;;
75165;SDS011;63747;48.042;10.088;2023-07-16T17:37:08;2.20;;;1.83;;
75165;SDS011;63747;48.042;10.088;2023-07-16T17:40:15;2.53;;;1.70;;
75165;SDS011;63747;48.042;10.088;2023-07-16T17:43:16;2.92;;;2.00;;
75165;SDS011;63747;48.042;10.088;2023-07-16T17:46:17;2.10;;;1.80;;
75165;SDS011;63747;48.042;10.088;2023-07-16T17:49:17;2.15;;;1.67;;
75165;SDS011;63747;48.042;10.088;2023-07-16T17:52:18;3.20;;;1.60;;
75165;SDS011;63747;48.042;10.088;2023-07-16T17:55:19;2.90;;;1.70;;
75165;SDS011;63747;48.042;10.088;2023-07-16T17:58:19;3.33;;;1.60;;
75165;SDS011;63747;48.042;10.088;2023-07-16T18:01:21;2.25;;;1.55;;
75165;SDS011;63747;48.042;10.088;2023-07-16T18:04:22;2.72;;;1.70;;
75165;SDS011;63747;48.042;10.088;2023-07-16T18:07:22;2.10;;;1.63;;
75165;SDS011;63747;48.042;10.088;2023-07-16T18:10:23;1.75;;;1.65;;
75165;SDS011;63747;48.042;10.088;2023-07-16T18:13:24;4.70;;;1.80;;
75165;SDS011;63747;48.042;10.088;2023-07-16T18:16:25;2.13;;;1.60;;
75165;SDS011;63747;48.042;10.088;2023-07-16T18:19:25;2.20;;;2.00;;
75165;SDS011;63747;48.042;10.088;2023-07-16T18:22:27;2.72;;;1.90;;
75165;SDS011;63747;48.042;10.088;2023-07-16T18:25:28;2.15;;;1.52;;
75165;SDS011;63747;48.042;10.088;2023-07-16T18:28:28;2.42;;;1.65;;
75165;SDS011;63747;48.042;10.088;2023-07-16T18:31:29;3.13;;;1.63;;
75165;SDS011;63747;48.042;10.088;2023-07-16T18:34:30;3.28;;;2.10;;
75165;SDS011;63747;48.042;10.088;2023-07-16T18:37:32;2.55;;;1.98;;
75165;SDS011;63747;48.042;10.088;2023-07-16T18:40:33;3.55;;;1.90;;
75165;SDS011;63747;48.042;10.088;2023-07-16T18:43:34;1.85;;;1.60;;
75165;SDS011;63747;48.042;10.088;2023-07-16T18:46:34;3.38;;;2.15;;
75165;SDS011;63747;48.042;10.088;2023-07-16T18:49:35;10.80;;;3.92;;
75165;SDS011;63747;48.042;10.088;2023-07-16T18:52:38;9.80;;;4.35;;
75165;SDS011;63747;48.042;10.088;2023-07-16T18:55:38;3.20;;;2.05;;
75165;SDS011;63747;48.042;10.088;2023-07-16T18:58:39;4.18;;;2.40;;
75165;SDS011;63747;48.042;10.088;2023-07-16T19:01:40;3.53;;;2.40;;
75165;SDS011;63747;48.042;10.088;2023-07-16T19:04:40;3.63;;;2.20;;
75165;SDS011;63747;48.042;10.088;2023-07-16T19:07:41;3.85;;;2.30;;
75165;SDS011;63747;48.042;10.088;2023-07-16T19:10:42;2.72;;;1.88;;
75165;SDS011;63747;48.042;10.088;2023-07-16T19:13:42;2.40;;;2.13;;
75165;SDS011;63747;48.042;10.088;2023-07-16T19:16:43;3.75;;;2.10;;
75165;SDS011;63747;48.042;10.088;2023-07-16T19:19:44;2.38;;;1.90;;
75165;SDS011;63747;48.042;10.088;2023-07-16T19:22:45;3.00;;;2.40;;
75165;SDS011;63747;48.042;10.088;2023-07-16T19:25:45;4.43;;;2.63;;
75165;SDS011;63747;48.042;10.088;2023-07-16T19:28:46;4.90;;;2.50;;
75165;SDS011;63747;48.042;10.088;2023-07-16T19:31:47;2.78;;;2.25;;
75165;SDS011;63747;48.042;10.088;2023-07-16T19:34:47;4.15;;;2.30;;
75165;SDS011;63747;48.042;10.088;2023-07-16T19:37:51;4.28;;;1.95;;
75165;SDS011;63747;48.042;10.088;2023-07-16T19:40:51;3.33;;;2.60;;